createdAt,value
2018-12-25T00:00:54.999Z,4.79
2018-12-25T00:01:55.025Z,4.84
2018-12-25T00:02:54.934Z,4.86
2018-12-25T00:03:54.931Z,4.86
2018-12-25T00:04:54.863Z,4.88
2018-12-25T00:05:54.946Z,4.84
2018-12-25T00:06:54.822Z,4.84
2018-12-25T00:07:55.874Z,4.80
2018-12-25T00:08:54.765Z,4.83
2018-12-25T00:09:54.768Z,4.80
2018-12-25T00:10:54.711Z,4.80
2018-12-25T00:11:54.731Z,4.87
2018-12-25T00:12:54.644Z,4.83
2018-12-25T00:13:54.705Z,4.83
2018-12-25T00:14:54.580Z,4.84
2018-12-25T00:15:54.599Z,4.80
2018-12-25T00:16:54.504Z,4.75
2018-12-25T00:17:54.516Z,4.84
2018-12-25T00:18:54.455Z,4.79
2018-12-25T00:19:54.541Z,4.87
2018-12-25T00:20:54.419Z,4.84
2018-12-25T00:21:55.157Z,4.80
2018-12-25T00:22:54.337Z,4.86
2018-12-25T00:23:54.358Z,4.79
2018-12-25T00:24:54.347Z,4.80
2018-12-25T00:25:54.365Z,4.74
2018-12-25T00:26:54.217Z,4.80
2018-12-25T00:27:54.333Z,4.84
2018-12-25T00:28:54.170Z,4.80
2018-12-25T00:29:54.195Z,4.79
2018-12-25T00:30:54.105Z,4.71
2018-12-25T00:31:54.105Z,4.84
2018-12-25T00:32:54.055Z,4.69
2018-12-25T00:33:54.134Z,4.83
2018-12-25T00:34:53.981Z,4.74
2018-12-25T00:35:54.064Z,4.75
2018-12-25T00:36:53.918Z,4.71
2018-12-25T00:37:54.510Z,4.71
2018-12-25T00:38:53.866Z,4.75
2018-12-25T00:39:53.928Z,4.74
2018-12-25T00:40:53.888Z,4.79
2018-12-25T00:41:53.857Z,4.80
2018-12-25T00:42:53.750Z,4.79
2018-12-25T00:43:53.770Z,4.75
2018-12-25T00:44:53.672Z,4.75
2018-12-25T00:45:53.687Z,4.71
2018-12-25T00:46:53.660Z,4.86
2018-12-25T00:47:53.842Z,4.74
2018-12-25T00:48:53.555Z,4.65
2018-12-25T00:49:53.611Z,4.84
2018-12-25T00:50:53.538Z,4.71
2018-12-25T00:51:53.513Z,4.79
2018-12-25T00:52:53.432Z,4.72
2018-12-25T00:53:53.535Z,4.67
2018-12-25T00:54:53.393Z,4.69
2018-12-25T00:55:53.451Z,4.71
2018-12-25T00:56:53.332Z,4.72
2018-12-25T00:57:53.367Z,4.72
2018-12-25T00:58:53.256Z,4.80
2018-12-25T00:59:53.265Z,4.80
2018-12-25T01:00:53.241Z,4.72
2018-12-25T01:01:53.353Z,4.72
2018-12-25T01:02:53.144Z,4.77
2018-12-25T01:03:53.197Z,4.79
2018-12-25T01:04:53.097Z,4.80
2018-12-25T01:05:54.123Z,4.71
2018-12-25T01:06:53.026Z,4.71
2018-12-25T01:07:53.035Z,4.79
2018-12-25T01:08:52.966Z,4.80
2018-12-25T01:09:53.029Z,4.69
2018-12-25T01:10:52.925Z,4.75
2018-12-25T01:11:53.977Z,4.75
2018-12-25T01:12:52.852Z,4.75
2018-12-25T01:13:52.871Z,4.75
2018-12-25T01:14:54.433Z,4.75
2018-12-25T01:15:52.933Z,4.71
2018-12-25T01:16:52.728Z,4.75
2018-12-25T01:17:52.822Z,4.77
2018-12-25T01:18:52.693Z,4.77
2018-12-25T01:19:52.695Z,4.74
2018-12-25T01:20:52.614Z,4.84
2018-12-25T01:21:52.621Z,4.83
2018-12-25T01:22:52.674Z,4.80
2018-12-25T01:23:52.657Z,4.72
2018-12-25T01:24:52.493Z,4.77
2018-12-25T01:25:52.504Z,4.75
2018-12-25T01:26:52.438Z,4.75
2018-12-25T01:27:53.447Z,4.74
2018-12-25T01:28:52.385Z,4.71
2018-12-25T01:29:52.435Z,4.79
2018-12-25T01:30:52.301Z,4.75
2018-12-25T01:31:52.332Z,4.79
2018-12-25T01:32:52.276Z,4.75
2018-12-25T01:33:53.272Z,4.74
2018-12-25T01:34:52.205Z,4.75
2018-12-25T01:35:52.291Z,4.74
2018-12-25T01:36:52.148Z,4.80
2018-12-25T01:37:52.240Z,4.80
2018-12-25T01:38:52.066Z,4.74
2018-12-25T01:39:52.090Z,4.75
2018-12-25T01:40:52.024Z,4.79
2018-12-25T01:41:52.096Z,4.79
2018-12-25T01:42:51.943Z,4.80
2018-12-25T01:43:52.012Z,4.79
2018-12-25T01:44:51.942Z,4.71
2018-12-25T01:45:51.950Z,4.79
2018-12-25T01:46:51.834Z,4.77
2018-12-25T01:47:51.830Z,4.83
2018-12-25T01:48:51.772Z,4.84
2018-12-25T01:49:51.843Z,4.87
2018-12-25T01:50:51.719Z,4.80
2018-12-25T01:51:51.796Z,4.77
2018-12-25T01:52:51.650Z,4.88
2018-12-25T01:53:51.749Z,4.84
2018-12-25T01:54:51.592Z,4.86
2018-12-25T01:55:51.655Z,4.83
2018-12-25T01:56:51.530Z,4.86
2018-12-25T01:57:51.579Z,4.86
2018-12-25T01:58:51.549Z,4.86
2018-12-25T01:59:51.468Z,4.79
2018-12-25T02:00:51.419Z,4.86
2018-12-25T02:01:51.483Z,4.80
2018-12-25T02:02:51.348Z,4.88
2018-12-25T02:03:51.395Z,4.84
2018-12-25T02:04:51.301Z,4.84
2018-12-25T02:05:52.338Z,4.88
2018-12-25T02:06:51.229Z,4.84
2018-12-25T02:07:51.217Z,4.75
2018-12-25T02:08:51.177Z,4.80
2018-12-25T02:09:59.144Z,4.83
2018-12-25T02:10:51.113Z,4.86
2018-12-25T02:11:58.646Z,4.83
2018-12-25T02:12:51.062Z,4.80
2018-12-25T02:14:15.661Z,4.77
2018-12-25T02:14:51.021Z,4.79
2018-12-25T02:15:51.059Z,4.83
2018-12-25T02:16:50.952Z,4.90
2018-12-25T02:17:50.971Z,4.77
2018-12-25T02:18:50.877Z,4.80
2018-12-25T02:19:50.895Z,4.75
2018-12-25T02:20:50.821Z,4.84
2018-12-25T02:21:50.905Z,4.83
2018-12-25T02:22:50.761Z,4.84
2018-12-25T02:23:50.816Z,4.77
2018-12-25T02:24:50.695Z,4.79
2018-12-25T02:25:50.717Z,4.75
2018-12-25T02:26:50.656Z,4.77
2018-12-25T02:27:50.632Z,4.86
2018-12-25T02:28:50.593Z,4.79
2018-12-25T02:29:50.658Z,4.80
2018-12-25T02:30:50.533Z,4.83
2018-12-25T02:31:50.574Z,4.84
2018-12-25T02:32:50.467Z,4.87
2018-12-25T02:33:50.462Z,4.83
2018-12-25T02:34:50.409Z,4.84
2018-12-25T02:35:50.482Z,4.86
2018-12-25T02:36:50.346Z,4.83
2018-12-25T02:37:50.402Z,4.86
2018-12-25T02:38:50.295Z,4.79
2018-12-25T02:39:50.330Z,4.83
2018-12-25T02:40:50.220Z,4.93
2018-12-25T02:41:50.223Z,4.84
2018-12-25T02:42:50.169Z,4.87
2018-12-25T02:43:50.225Z,4.84
2018-12-25T02:44:50.096Z,4.88
2018-12-25T02:45:50.136Z,4.90
2018-12-25T02:46:50.038Z,4.86
2018-12-25T02:47:50.048Z,4.86
2018-12-25T02:48:49.983Z,4.88
2018-12-25T02:49:50.709Z,4.84
2018-12-25T02:50:49.932Z,4.86
2018-12-25T02:51:49.967Z,4.80
2018-12-25T02:52:49.874Z,4.91
2018-12-25T02:53:49.886Z,4.79
2018-12-25T02:54:49.817Z,4.88
2018-12-25T02:55:49.840Z,4.90
2018-12-25T02:56:49.783Z,4.90
2018-12-25T02:57:49.808Z,4.79
2018-12-25T02:58:49.677Z,4.87
2018-12-25T02:59:49.711Z,4.77
2018-12-25T03:00:49.632Z,4.83
2018-12-25T03:01:49.642Z,4.84
2018-12-25T03:02:49.562Z,4.79
2018-12-25T03:03:49.641Z,4.79
2018-12-25T03:04:49.517Z,4.83
2018-12-25T03:05:49.561Z,4.84
2018-12-25T03:06:49.434Z,4.77
2018-12-25T03:07:49.482Z,4.83
2018-12-25T03:08:49.379Z,4.79
2018-12-25T03:09:49.371Z,4.80
2018-12-25T03:10:49.330Z,4.77
2018-12-25T03:11:49.394Z,4.79
2018-12-25T03:12:49.329Z,4.72
2018-12-25T03:13:49.310Z,4.75
2018-12-25T03:14:49.203Z,4.77
2018-12-25T03:15:49.227Z,4.72
2018-12-25T03:16:49.136Z,4.74
2018-12-25T03:17:49.236Z,4.80
2018-12-25T03:18:49.173Z,4.75
2018-12-25T03:19:49.158Z,4.72
2018-12-25T03:20:49.022Z,4.83
2018-12-25T03:21:49.068Z,4.74
2018-12-25T03:22:48.977Z,4.74
2018-12-25T03:23:48.960Z,4.80
2018-12-25T03:24:48.927Z,4.79
2018-12-25T03:25:48.982Z,4.79
2018-12-25T03:26:48.857Z,4.86
2018-12-25T03:27:48.891Z,4.80
2018-12-25T03:28:48.796Z,4.77
2018-12-25T03:29:48.801Z,4.86
2018-12-25T03:30:48.721Z,4.80
2018-12-25T03:31:48.722Z,4.74
2018-12-25T03:32:48.989Z,4.84
2018-12-25T03:33:48.720Z,4.86
2018-12-25T03:34:48.611Z,4.83
2018-12-25T03:35:48.651Z,4.83
2018-12-25T03:36:48.558Z,4.77
2018-12-25T03:37:48.560Z,4.86
2018-12-25T03:38:48.487Z,4.86
2018-12-25T03:39:50.503Z,4.84
2018-12-25T03:40:48.471Z,4.79
2018-12-25T03:41:48.481Z,4.79
2018-12-25T03:42:48.365Z,4.79
2018-12-25T03:43:48.390Z,4.79
2018-12-25T03:44:48.301Z,4.84
2018-12-25T03:45:48.350Z,4.83
2018-12-25T03:46:48.248Z,4.83
2018-12-25T03:47:48.266Z,4.79
2018-12-25T03:48:48.182Z,4.80
2018-12-25T03:49:48.298Z,4.84
2018-12-25T03:50:48.131Z,4.84
2018-12-25T03:51:48.175Z,4.79
2018-12-25T03:52:48.066Z,4.77
2018-12-25T03:53:48.084Z,4.75
2018-12-25T03:54:48.016Z,4.72
2018-12-25T03:55:47.992Z,4.72
2018-12-25T03:56:47.963Z,4.72
2018-12-25T03:57:48.035Z,4.77
2018-12-25T03:58:47.881Z,4.79
2018-12-25T03:59:47.925Z,4.71
2018-12-25T04:00:47.838Z,4.72
2018-12-25T04:01:47.859Z,4.71
2018-12-25T04:02:47.792Z,4.68
2018-12-25T04:04:02.694Z,4.65
2018-12-25T04:04:47.711Z,4.69
2018-12-25T04:05:48.799Z,4.64
2018-12-25T04:06:47.647Z,4.72
2018-12-25T04:07:54.222Z,4.67
2018-12-25T04:08:47.587Z,4.69
2018-12-25T04:27:01.469Z,4.65
2018-12-25T04:27:58.428Z,4.62
2018-12-25T04:28:58.431Z,4.68
2018-12-25T04:29:58.361Z,4.64
2018-12-25T04:30:58.331Z,4.62
2018-12-25T04:31:58.356Z,4.59
2018-12-25T04:32:58.294Z,4.56
2018-12-25T04:33:58.340Z,4.57
2018-12-25T04:34:58.219Z,4.64
2018-12-25T04:35:58.284Z,4.57
2018-12-25T04:36:58.156Z,4.64
2018-12-25T04:37:58.196Z,4.65
2018-12-25T04:38:58.101Z,4.59
2018-12-25T04:39:58.107Z,4.53
2018-12-25T04:40:58.045Z,4.62
2018-12-25T04:41:58.015Z,4.62
2018-12-25T04:42:57.980Z,4.54
2018-12-25T04:43:58.032Z,4.62
2018-12-25T04:44:57.912Z,4.61
2018-12-25T04:45:57.999Z,4.56
2018-12-25T04:46:57.861Z,4.61
2018-12-25T04:47:57.847Z,4.57
2018-12-25T04:48:57.788Z,4.57
2018-12-25T04:49:57.862Z,4.62
2018-12-25T04:50:57.731Z,4.68
2018-12-25T04:51:58.789Z,4.61
2018-12-25T04:52:57.676Z,4.65
2018-12-25T04:53:57.685Z,4.62
2018-12-25T04:54:57.613Z,4.61
2018-12-25T04:55:58.621Z,4.68
2018-12-25T04:56:57.549Z,4.68
2018-12-25T04:58:12.459Z,4.62
2018-12-25T04:58:57.541Z,4.68
2018-12-25T04:59:57.524Z,4.77
2018-12-25T05:00:57.432Z,4.77
2018-12-25T05:01:57.431Z,4.67
2018-12-25T05:02:57.373Z,4.69
2018-12-25T05:03:57.447Z,4.74
2018-12-25T05:04:57.302Z,4.68
2018-12-25T05:05:57.373Z,4.69
2018-12-25T05:06:57.251Z,4.72
2018-12-25T05:07:57.268Z,4.75
2018-12-25T05:08:57.198Z,4.72
2018-12-25T05:09:57.177Z,4.75
2018-12-25T05:10:57.135Z,4.75
2018-12-25T05:11:57.200Z,4.74
2018-12-25T05:12:57.081Z,4.71
2018-12-25T05:13:57.112Z,4.77
2018-12-25T05:14:57.017Z,4.77
2018-12-25T05:15:57.019Z,4.75
2018-12-25T05:16:56.951Z,4.68
2018-12-25T05:17:57.101Z,4.71
2018-12-25T05:18:56.882Z,4.69
2018-12-25T05:19:56.949Z,4.65
2018-12-25T05:20:56.824Z,4.69
2018-12-25T05:21:56.854Z,4.69
2018-12-25T05:22:56.775Z,4.68
2018-12-25T05:23:56.771Z,4.65
2018-12-25T05:24:56.707Z,4.67
2018-12-25T05:25:56.778Z,4.71
2018-12-25T05:26:56.646Z,4.71
2018-12-25T05:27:56.714Z,4.65
2018-12-25T05:28:56.596Z,4.71
2018-12-25T05:29:56.604Z,4.71
2018-12-25T05:30:56.526Z,4.67
2018-12-25T05:31:56.629Z,4.59
2018-12-25T05:32:56.470Z,4.59
2018-12-25T05:33:56.524Z,4.62
2018-12-25T05:34:56.535Z,4.62
2018-12-25T05:35:56.452Z,4.62
2018-12-25T05:36:56.360Z,4.61
2018-12-25T05:37:56.351Z,4.57
2018-12-25T05:38:56.349Z,4.56
2018-12-25T05:39:56.370Z,4.57
2018-12-25T05:40:56.230Z,4.54
2018-12-25T05:41:56.285Z,4.51
2018-12-25T05:42:56.169Z,4.50
2018-12-25T05:43:56.186Z,4.53
2018-12-25T05:44:56.112Z,4.50
2018-12-25T05:45:56.100Z,4.51
2018-12-25T05:46:56.057Z,4.53
2018-12-25T05:47:56.112Z,4.56
2018-12-25T05:48:55.989Z,4.51
2018-12-25T05:49:56.026Z,4.51
2018-12-25T05:50:55.939Z,4.62
2018-12-25T05:51:55.931Z,4.59
2018-12-25T05:52:55.875Z,4.51
2018-12-25T05:53:55.952Z,4.56
2018-12-25T05:54:55.819Z,4.61
2018-12-25T05:55:55.859Z,4.56
2018-12-25T05:56:55.751Z,4.64
2018-12-25T05:57:55.773Z,4.59
2018-12-25T05:58:55.687Z,4.57
2018-12-25T05:59:56.710Z,4.64
2018-12-25T06:00:55.626Z,4.57
2018-12-25T06:01:55.697Z,4.53
2018-12-25T06:02:55.574Z,4.57
2018-12-25T06:03:55.605Z,4.62
2018-12-25T06:04:55.513Z,4.61
2018-12-25T06:05:55.560Z,4.56
2018-12-25T06:06:55.447Z,4.61
2018-12-25T06:07:55.522Z,4.67
2018-12-25T06:08:55.395Z,4.61
2018-12-25T06:09:55.447Z,4.62
2018-12-25T06:10:55.327Z,4.68
2018-12-25T06:11:55.362Z,4.65
2018-12-25T06:12:55.269Z,4.57
2018-12-25T06:13:55.266Z,4.68
2018-12-25T06:14:55.207Z,4.67
2018-12-25T06:15:56.209Z,4.69
2018-12-25T06:16:55.143Z,4.71
2018-12-25T06:17:55.197Z,4.68
2018-12-25T06:18:55.090Z,4.77
2018-12-25T06:19:55.097Z,4.71
2018-12-25T06:20:55.442Z,4.69
2018-12-25T06:21:55.026Z,4.77
2018-12-25T06:22:54.977Z,4.77
2018-12-25T06:23:55.037Z,4.87
2018-12-25T06:24:54.904Z,4.84
2018-12-25T06:25:54.960Z,4.79
2018-12-25T06:26:54.854Z,4.77
2018-12-25T06:27:54.855Z,4.80
2018-12-25T06:28:54.776Z,4.84
2018-12-25T06:29:54.849Z,4.79
2018-12-25T06:30:54.752Z,4.74
2018-12-25T06:31:56.751Z,4.75
2018-12-25T06:32:54.672Z,4.80
2018-12-25T06:33:56.758Z,4.77
2018-12-25T06:34:54.612Z,4.77
2018-12-25T06:35:54.615Z,4.71
2018-12-25T06:36:54.545Z,4.80
2018-12-25T06:37:55.547Z,4.77
2018-12-25T06:38:54.505Z,4.71
2018-12-25T06:39:54.540Z,4.69
2018-12-25T06:40:54.449Z,4.69
2018-12-25T06:41:54.456Z,4.71
2018-12-25T06:42:54.361Z,4.72
2018-12-25T06:43:54.371Z,4.72
2018-12-25T06:44:54.306Z,4.69
2018-12-25T06:45:54.385Z,4.75
2018-12-25T06:46:54.252Z,4.80
2018-12-25T06:47:54.303Z,4.71
2018-12-25T06:48:54.182Z,4.71
2018-12-25T06:49:54.202Z,4.68
2018-12-25T06:50:54.121Z,4.77
2018-12-25T06:51:54.211Z,4.74
2018-12-25T06:52:54.066Z,4.79
2018-12-25T06:53:54.131Z,4.74
2018-12-25T06:54:54.013Z,4.79
2018-12-25T06:55:54.033Z,4.67
2018-12-25T06:56:53.943Z,4.69
2018-12-25T06:57:53.952Z,4.75
2018-12-25T06:58:53.965Z,4.72
2018-12-25T06:59:53.956Z,4.75
2018-12-25T07:00:53.855Z,4.84
2018-12-25T07:01:54.900Z,4.72
2018-12-25T07:02:53.780Z,4.79
2018-12-25T07:04:01.558Z,4.77
2018-12-25T07:04:53.706Z,4.77
2018-12-25T07:05:53.790Z,4.71
2018-12-25T07:06:53.651Z,4.68
2018-12-25T07:07:53.698Z,4.69
2018-12-25T07:08:53.593Z,4.80
2018-12-25T07:09:53.617Z,4.80
2018-12-25T07:10:53.547Z,4.79
2018-12-25T07:12:15.550Z,4.77
2018-12-25T07:12:53.460Z,4.79
2018-12-25T07:13:55.481Z,4.74
2018-12-25T07:14:53.406Z,4.84
2018-12-25T07:15:55.481Z,4.80
2018-12-25T07:16:53.351Z,4.84
2018-12-25T07:17:53.699Z,4.77
2018-12-25T07:18:53.306Z,4.77
2018-12-25T07:19:55.297Z,4.90
2018-12-25T07:20:53.233Z,4.83
2018-12-25T07:21:53.288Z,4.84
2018-12-25T07:22:53.164Z,4.80
2018-12-25T07:23:55.233Z,4.87
2018-12-25T07:24:53.089Z,4.84
2018-12-25T07:26:18.068Z,4.87
2018-12-25T07:26:53.109Z,4.87
2018-12-25T07:28:01.110Z,4.94
2018-12-25T07:28:52.973Z,4.94
2018-12-25T07:29:55.085Z,4.88
2018-12-25T07:30:52.935Z,4.87
2018-12-25T07:31:53.997Z,4.88
2018-12-25T07:32:54.484Z,4.90
2018-12-25T07:33:52.867Z,4.90
2018-12-25T07:34:57.494Z,4.87
2018-12-25T07:35:52.782Z,4.83
2018-12-25T07:36:52.753Z,4.87
2018-12-25T07:37:53.550Z,4.88
2018-12-25T07:38:52.696Z,4.90
2018-12-25T07:39:53.740Z,4.94
2018-12-25T07:40:52.609Z,4.91
2018-12-25T07:41:54.680Z,4.91
2018-12-25T07:42:52.556Z,4.88
2018-12-25T07:43:52.669Z,4.88
2018-12-25T07:44:52.498Z,4.97
2018-12-25T07:45:52.544Z,4.96
2018-12-25T07:46:52.458Z,4.91
2018-12-25T07:47:52.449Z,4.96
2018-12-25T07:48:52.455Z,4.91
2018-12-25T07:49:52.362Z,4.91
2018-12-25T07:50:52.318Z,4.90
2018-12-25T07:51:52.393Z,4.96
2018-12-25T07:52:52.305Z,5.05
2018-12-25T07:53:52.325Z,4.97
2018-12-25T07:54:52.204Z,4.99
2018-12-25T07:55:52.217Z,5.02
2018-12-25T07:56:52.142Z,5.01
2018-12-25T07:57:52.123Z,4.97
2018-12-25T07:58:52.091Z,4.93
2018-12-25T07:59:52.150Z,4.96
2018-12-25T08:00:52.013Z,5.06
2018-12-25T08:01:52.050Z,4.99
2018-12-25T08:02:51.953Z,5.01
2018-12-25T08:03:51.966Z,5.04
2018-12-25T08:04:51.913Z,4.96
2018-12-25T08:05:53.478Z,4.96
2018-12-25T08:06:51.820Z,4.94
2018-12-25T08:07:51.889Z,5.05
2018-12-25T08:08:51.774Z,5.08
2018-12-25T08:09:51.819Z,5.02
2018-12-25T08:10:51.719Z,4.93
2018-12-25T08:11:51.837Z,5.06
2018-12-25T08:12:51.731Z,5.04
2018-12-25T08:13:51.758Z,5.05
2018-12-25T08:14:51.610Z,5.01
2018-12-25T08:15:51.640Z,5.08
2018-12-25T08:16:51.530Z,5.09
2018-12-25T08:17:51.549Z,5.06
2018-12-25T08:18:51.485Z,5.15
2018-12-25T08:19:51.556Z,5.17
2018-12-25T08:20:51.415Z,5.01
2018-12-25T08:21:51.487Z,5.20
2018-12-25T08:22:51.346Z,5.06
2018-12-25T08:23:51.386Z,5.20
2018-12-25T08:24:51.298Z,5.19
2018-12-25T08:25:51.293Z,5.20
2018-12-25T08:26:51.251Z,5.22
2018-12-25T08:27:51.338Z,5.09
2018-12-25T08:28:51.177Z,5.24
2018-12-25T08:29:51.230Z,5.20
2018-12-25T08:30:51.120Z,5.20
2018-12-25T08:31:53.183Z,5.19
2018-12-25T08:32:51.120Z,5.19
2018-12-25T08:33:51.043Z,5.12
2018-12-25T08:34:51.016Z,5.22
2018-12-25T08:35:51.060Z,5.22
2018-12-25T08:36:50.930Z,5.20
2018-12-25T08:37:50.982Z,5.20
2018-12-25T08:38:50.868Z,5.17
2018-12-25T08:39:50.876Z,5.30
2018-12-25T08:40:50.814Z,5.27
2018-12-25T08:41:51.441Z,5.26
2018-12-25T08:42:50.751Z,5.30
2018-12-25T08:43:50.802Z,5.30
2018-12-25T08:44:50.707Z,5.32
2018-12-25T08:45:50.724Z,5.33
2018-12-25T08:46:50.644Z,5.40
2018-12-25T08:47:50.593Z,5.33
2018-12-25T08:48:50.568Z,5.33
2018-12-25T08:49:50.530Z,5.37
2018-12-25T08:50:50.503Z,5.40
2018-12-25T08:51:50.499Z,5.37
2018-12-25T08:52:50.456Z,5.42
2018-12-25T08:53:50.422Z,5.42
2018-12-25T08:54:50.380Z,5.48
2018-12-25T08:55:50.358Z,5.45
2018-12-25T08:56:50.339Z,5.40
2018-12-25T08:57:50.913Z,5.51
2018-12-25T08:58:50.303Z,5.51
2018-12-25T08:59:51.308Z,5.58
2018-12-25T09:00:50.213Z,5.62
2018-12-25T09:01:50.203Z,5.60
2018-12-25T09:02:50.167Z,5.62
2018-12-25T09:03:50.111Z,5.59
2018-12-25T09:04:50.086Z,5.63
2018-12-25T09:05:50.061Z,5.70
2018-12-25T09:06:50.146Z,5.62
2018-12-25T09:07:49.993Z,5.73
2018-12-25T09:08:58.552Z,5.70
2018-12-25T09:09:49.922Z,5.69
2018-12-25T09:10:49.968Z,5.69
2018-12-25T09:11:49.867Z,5.70
2018-12-25T09:12:49.906Z,5.73
2018-12-25T09:13:49.809Z,5.78
2018-12-25T09:14:49.889Z,5.83
2018-12-25T09:15:49.833Z,5.77
2018-12-25T09:16:57.584Z,5.80
2018-12-25T09:17:49.679Z,5.80
2018-12-25T09:18:50.727Z,5.83
2018-12-25T09:19:49.638Z,5.87
2018-12-25T09:20:50.649Z,5.90
2018-12-25T09:21:49.586Z,5.85
2018-12-25T09:22:50.546Z,5.92
2018-12-25T09:23:49.501Z,5.81
2018-12-25T09:24:56.089Z,5.85
2018-12-25T09:25:49.448Z,5.90
2018-12-25T09:26:49.417Z,5.84
2018-12-25T09:27:50.490Z,5.87
2018-12-25T09:28:49.353Z,5.77
2018-12-25T09:29:56.607Z,5.83
2018-12-25T09:30:49.301Z,5.78
2018-12-25T09:31:56.037Z,5.78
2018-12-25T09:32:49.245Z,5.73
2018-12-25T09:33:51.237Z,5.77
2018-12-25T09:34:49.184Z,5.69
2018-12-25T09:35:50.228Z,5.70
2018-12-25T09:36:49.107Z,5.74
2018-12-25T09:37:50.137Z,5.73
2018-12-25T09:38:49.058Z,5.78
2018-12-25T09:39:49.045Z,5.63
2018-12-25T09:40:48.998Z,5.63
2018-12-25T09:41:48.999Z,5.65
2018-12-25T09:42:48.945Z,5.70
2018-12-25T09:43:48.899Z,5.74
2018-12-25T09:44:48.866Z,5.70
2018-12-25T09:46:06.227Z,5.77
2018-12-25T09:46:48.827Z,5.78
2018-12-25T09:47:48.803Z,5.75
2018-12-25T09:49:05.592Z,5.70
2018-12-25T09:49:48.727Z,5.73
2018-12-25T09:50:48.721Z,5.74
2018-12-25T09:51:54.486Z,5.81
2018-12-25T09:52:48.629Z,5.78
2018-12-25T09:54:12.579Z,5.78
2018-12-25T09:54:48.639Z,5.83
2018-12-25T09:55:48.544Z,5.87
2018-12-25T09:56:48.535Z,5.78
2018-12-25T09:57:48.484Z,5.90
2018-12-25T09:59:09.439Z,5.92
2018-12-25T09:59:48.417Z,5.88
2018-12-25T10:01:48.370Z,5.98
2018-12-25T10:10:42.964Z,6.42
2018-12-25T10:11:20.058Z,6.42
2018-12-25T10:12:18.962Z,6.39
2018-12-25T10:13:19.971Z,6.46
2018-12-25T10:14:18.889Z,6.39
2018-12-25T10:15:19.922Z,6.43
2018-12-25T10:16:18.830Z,6.43
2018-12-25T10:17:18.798Z,6.43
2018-12-25T10:18:18.832Z,6.36
2018-12-25T10:19:27.546Z,6.40
2018-12-25T10:20:18.811Z,6.40
2018-12-25T10:21:19.770Z,6.39
2018-12-25T10:22:18.646Z,6.40
2018-12-25T10:23:18.646Z,6.50
2018-12-25T10:24:18.581Z,6.45
2018-12-25T10:25:27.573Z,6.51
2018-12-25T10:26:18.516Z,6.60
2018-12-25T10:27:19.600Z,6.68
2018-12-25T10:28:18.469Z,6.64
2018-12-25T10:29:18.437Z,6.57
2018-12-25T10:30:18.398Z,6.65
2018-12-25T10:31:18.392Z,6.73
2018-12-25T10:32:18.353Z,6.71
2018-12-25T10:33:18.311Z,6.75
2018-12-25T10:34:18.282Z,6.69
2018-12-25T10:35:18.323Z,6.75
2018-12-25T10:36:18.223Z,6.76
2018-12-25T10:37:19.265Z,6.79
2018-12-25T10:38:18.160Z,6.68
2018-12-25T10:39:18.252Z,6.91
2018-12-25T10:40:18.103Z,6.83
2018-12-25T10:41:18.159Z,6.90
2018-12-25T10:42:18.040Z,6.93
2018-12-25T10:43:20.112Z,6.96
2018-12-25T10:44:17.972Z,7.00
2018-12-25T10:45:18.079Z,7.00
2018-12-25T10:46:17.945Z,7.04
2018-12-25T10:47:17.905Z,6.99
2018-12-25T10:48:18.922Z,7.01
2018-12-25T10:49:17.842Z,7.09
2018-12-25T10:50:17.799Z,6.96
2018-12-25T10:51:18.838Z,7.00
2018-12-25T10:52:17.740Z,7.08
2018-12-25T10:53:17.838Z,6.90
2018-12-25T10:54:17.692Z,7.04
2018-12-25T10:55:19.810Z,6.96
2018-12-25T10:56:17.632Z,6.94
2018-12-25T10:57:17.586Z,6.96
2018-12-25T10:58:17.564Z,6.90
2018-12-25T10:59:17.532Z,6.94
2018-12-25T11:00:17.510Z,6.96
2018-12-25T11:01:17.465Z,6.90
2018-12-25T11:02:17.486Z,6.97
2018-12-25T11:03:17.416Z,7.04
2018-12-25T11:04:17.381Z,6.99
2018-12-25T11:05:17.346Z,6.96
2018-12-25T11:06:17.318Z,6.99
2018-12-25T11:07:17.297Z,7.00
2018-12-25T11:08:17.263Z,7.09
2018-12-25T11:09:17.228Z,7.05
2018-12-25T11:10:17.328Z,7.11
2018-12-25T11:11:17.167Z,7.00
2018-12-25T11:12:19.182Z,6.97
2018-12-25T11:13:17.118Z,6.94
2018-12-25T11:14:17.202Z,6.94
2018-12-25T11:15:17.043Z,6.91
2018-12-25T11:16:17.116Z,6.90
2018-12-25T11:17:16.983Z,6.83
2018-12-25T11:18:17.125Z,6.89
2018-12-25T11:19:16.927Z,6.89
2018-12-25T11:20:16.891Z,6.94
2018-12-25T11:21:17.060Z,6.87
2018-12-25T11:22:19.884Z,6.90
2018-12-25T11:23:17.984Z,6.90
2018-12-25T11:24:16.776Z,6.93
2018-12-25T11:25:16.876Z,6.93
2018-12-25T11:26:16.709Z,6.96
2018-12-25T11:27:18.825Z,7.05
2018-12-25T11:28:16.656Z,6.99
2018-12-25T11:29:16.639Z,7.05
2018-12-25T11:30:16.616Z,7.05
2018-12-25T11:31:16.614Z,6.94
2018-12-25T11:32:16.540Z,6.96
2018-12-25T11:33:16.605Z,7.11
2018-12-25T11:34:16.465Z,7.12
2018-12-25T11:35:17.560Z,7.07
2018-12-25T11:36:16.418Z,7.09
2018-12-25T11:37:16.386Z,7.14
2018-12-25T11:38:16.354Z,7.07
2018-12-25T11:39:16.332Z,7.09
2018-12-25T11:40:16.471Z,7.11
2018-12-25T11:41:16.265Z,7.15
2018-12-25T11:42:16.233Z,7.12
2018-12-25T11:43:18.338Z,7.26
2018-12-25T11:44:16.187Z,7.16
2018-12-25T11:45:16.152Z,7.19
2018-12-25T11:46:16.115Z,7.19
2018-12-25T11:47:16.107Z,7.15
2018-12-25T11:48:17.276Z,7.23
2018-12-25T11:49:16.065Z,7.32
2018-12-25T11:50:16.142Z,7.26
2018-12-25T11:51:15.980Z,7.36
2018-12-25T11:52:16.139Z,7.45
2018-12-25T11:53:15.916Z,7.51
2018-12-25T11:54:16.049Z,7.66
2018-12-25T11:55:15.847Z,7.62
2018-12-25T11:56:15.951Z,7.73
2018-12-25T11:57:15.808Z,7.76
2018-12-25T11:58:16.902Z,7.82
2018-12-25T11:59:15.732Z,7.81
2018-12-25T12:00:15.710Z,7.84
2018-12-25T12:01:15.786Z,7.82
2018-12-25T12:02:17.136Z,7.89
2018-12-25T12:03:15.602Z,7.95
2018-12-25T12:04:15.593Z,7.85
2018-12-25T12:05:15.559Z,7.84
2018-12-25T12:06:15.723Z,7.92
2018-12-25T12:07:15.495Z,7.91
2018-12-25T12:08:15.444Z,7.95
2018-12-25T12:09:15.422Z,7.86
2018-12-25T12:10:15.389Z,7.94
2018-12-25T12:11:15.360Z,7.99
2018-12-25T12:12:15.378Z,8.00
2018-12-25T12:13:15.303Z,8.09
2018-12-25T12:14:15.279Z,8.17
2018-12-25T12:15:15.247Z,8.17
2018-12-25T12:16:15.228Z,8.25
2018-12-25T12:17:15.336Z,8.28
2018-12-25T12:18:15.155Z,8.29
2018-12-25T12:19:15.118Z,8.28
2018-12-25T12:20:15.093Z,8.22
2018-12-25T12:21:15.066Z,8.24
2018-12-25T12:22:15.048Z,8.24
2018-12-25T12:23:15.011Z,8.18
2018-12-25T12:24:14.989Z,8.21
2018-12-25T12:25:14.943Z,8.20
2018-12-25T12:26:14.924Z,8.21
2018-12-25T12:27:14.883Z,8.20
2018-12-25T12:28:14.867Z,8.24
2018-12-25T12:29:14.848Z,8.21
2018-12-25T12:30:14.798Z,8.22
2018-12-25T12:31:14.772Z,8.14
2018-12-25T12:32:14.753Z,8.12
2018-12-25T12:33:15.637Z,8.20
2018-12-25T12:34:14.694Z,8.06
2018-12-25T12:35:14.646Z,8.04
2018-12-25T12:36:14.612Z,7.95
2018-12-25T12:37:14.587Z,7.96
2018-12-25T12:38:14.555Z,7.99
2018-12-25T12:39:14.528Z,8.00
2018-12-25T12:40:14.513Z,7.85
2018-12-25T12:41:14.517Z,7.84
2018-12-25T12:42:14.530Z,7.84
2018-12-25T12:43:14.424Z,7.82
2018-12-25T12:44:14.394Z,7.73
2018-12-25T12:45:14.358Z,7.79
2018-12-25T12:46:14.315Z,7.76
2018-12-25T12:47:14.287Z,7.77
2018-12-25T12:48:14.256Z,7.73
2018-12-25T12:49:14.231Z,7.73
2018-12-25T12:50:14.187Z,7.76
2018-12-25T12:51:14.179Z,7.74
2018-12-25T12:52:14.146Z,7.81
2018-12-25T12:53:14.115Z,7.71
2018-12-25T12:54:14.084Z,7.73
2018-12-25T12:55:14.054Z,7.79
2018-12-25T12:56:14.027Z,7.79
2018-12-25T12:57:13.994Z,7.77
2018-12-25T12:58:13.983Z,7.91
2018-12-25T12:59:13.923Z,7.92
2018-12-25T13:00:13.899Z,7.92
2018-12-25T13:01:13.860Z,7.96
2018-12-25T13:02:13.852Z,7.94
2018-12-25T13:03:13.865Z,7.89
2018-12-25T13:04:13.805Z,7.95
2018-12-25T13:05:13.755Z,7.85
2018-12-25T13:06:13.712Z,7.84
2018-12-25T13:07:13.692Z,7.85
2018-12-25T13:08:13.653Z,7.79
2018-12-25T13:09:13.622Z,7.71
2018-12-25T13:10:13.596Z,7.66
2018-12-25T13:11:13.572Z,7.67
2018-12-25T13:12:13.620Z,7.58
2018-12-25T13:13:13.520Z,7.54
2018-12-25T13:14:13.478Z,7.47
2018-12-25T13:15:13.450Z,7.44
2018-12-25T13:16:13.421Z,7.42
2018-12-25T13:17:13.439Z,7.54
2018-12-25T13:18:13.355Z,7.54
2018-12-25T13:19:15.387Z,7.48
2018-12-25T13:20:13.316Z,7.50
2018-12-25T13:21:14.410Z,7.60
2018-12-25T13:22:13.288Z,7.76
2018-12-25T13:23:14.278Z,7.67
2018-12-25T13:24:13.180Z,7.82
2018-12-25T13:25:13.151Z,7.69
2018-12-25T13:26:13.136Z,7.66
2018-12-25T13:27:14.224Z,7.77
2018-12-25T13:28:13.068Z,7.71
2018-12-25T13:29:13.049Z,7.67
2018-12-25T13:30:13.101Z,7.63
2018-12-25T13:31:12.972Z,7.57
2018-12-25T13:32:14.039Z,7.57
2018-12-25T13:33:12.911Z,7.57
2018-12-25T13:34:12.926Z,7.51
2018-12-25T13:35:12.854Z,7.54
2018-12-25T13:36:12.956Z,7.42
2018-12-25T13:37:12.806Z,7.52
2018-12-25T13:38:13.875Z,7.54
2018-12-25T13:39:12.726Z,7.42
2018-12-25T13:40:19.620Z,7.51
2018-12-25T13:41:12.668Z,7.39
2018-12-25T13:42:13.708Z,7.41
2018-12-25T13:43:12.611Z,7.41
2018-12-25T13:44:13.707Z,7.41